Time;durP1;ratioP1;P1;durP2;ratioP2;P2;SDS_P1;SDS_P2;PMS_P1;PMS_P2;Temp;Humidity;BMP_temperature;BMP_pressure;BME280_temperature;BME280_humidity;BME280_pressure;Samples;Min_cycle;Max_cycle;Signal;HPM_P1;HPM_P2
2021/05/02 00:01:13;;;;;;;13.73;9.35;;;7.00;99.90;;;8.08;71.99;100345.06;6218260;23;20019;-83
2021/05/02 00:03:40;;;;;;;14.75;8.65;;;7.00;99.90;;;8.09;72.20;100351.44;6194846;23;20049;-80
2021/05/02 00:06:12;;;;;;;16.30;9.68;;;6.90;99.90;;;8.10;72.38;100350.25;6192221;23;20059;-81
2021/05/02 00:08:38;;;;;;;11.75;8.27;;;6.90;99.90;;;8.05;72.35;100351.31;6191472;23;20019;-77
2021/05/02 00:11:08;;;;;;;15.10;9.35;;;6.90;99.90;;;8.05;72.60;100344.94;6217789;23;20008;-79
2021/05/02 00:13:37;;;;;;;14.23;9.30;;;6.90;99.90;;;8.03;72.96;100352.84;6211178;23;20390;-78
2021/05/02 00:16:07;;;;;;;17.70;10.15;;;6.90;99.90;;;7.96;73.45;100354.19;6228928;22;20020;-78
2021/05/02 00:18:36;;;;;;;13.50;9.82;;;6.80;99.90;;;7.97;73.06;100347.50;6218331;23;20000;-78
2021/05/02 00:21:09;;;;;;;14.98;10.63;;;6.80;99.90;;;7.93;73.74;100354.91;6218016;23;20427;-78
2021/05/02 00:23:41;;;;;;;16.42;10.30;;;6.80;99.90;;;7.89;74.07;100359.56;6217917;23;20035;-80
2021/05/02 00:26:12;;;;;;;14.32;10.80;;;6.80;99.90;;;7.79;75.33;100359.19;6200077;23;20435;-80
2021/05/02 00:28:52;;;;;;;17.35;10.88;;;6.70;99.90;;;7.71;75.64;100360.09;6229604;23;20024;-80
2021/05/02 00:31:22;;;;;;;16.83;11.65;;;6.70;99.90;;;7.73;75.41;100364.19;6203889;23;20064;-80
2021/05/02 00:33:49;;;;;;;18.38;12.25;;;6.60;99.90;;;7.73;75.89;100361.41;6229548;23;20003;-80
2021/05/02 00:36:16;;;;;;;17.30;11.35;;;6.60;99.90;;;7.60;76.05;100364.50;6202427;23;20015;-80
2021/05/02 00:38:43;;;;;;;20.05;11.95;;;6.50;99.90;;;7.47;76.48;100369.22;6202614;23;20008;-79
2021/05/02 00:41:34;;;;;;;17.35;11.73;;;6.40;99.90;;;7.46;77.16;100367.59;6202748;23;20016;-80
2021/05/02 00:44:22;;;;;;;18.45;12.00;;;6.40;99.90;;;7.43;77.10;100374.66;6201086;23;20374;-80
2021/05/02 00:47:02;;;;;;;15.80;11.48;;;6.30;99.90;;;7.32;77.14;100376.22;6228346;23;20012;-79
2021/05/02 00:50:05;;;;;;;18.17;12.38;;;6.30;99.90;;;7.31;78.40;100369.06;6229534;23;20032;-80
2021/05/02 00:53:12;;;;;;;18.05;13.30;;;6.20;99.90;;;7.30;78.74;100373.00;6230162;23;20032;-79
2021/05/02 00:55:57;;;;;;;19.23;12.60;;;6.20;99.90;;;7.18;79.16;100363.81;6202621;23;20014;-80
2021/05/02 00:58:39;;;;;;;19.17;13.18;;;6.10;99.90;;;7.19;79.87;100366.22;6223772;23;20072;-80
2021/05/02 01:01:17;;;;;;;21.40;13.45;;;6.10;99.90;;;7.18;80.29;100366.59;6224565;23;20020;-80
2021/05/02 01:03:49;;;;;;;19.80;13.02;;;6.10;99.90;;;7.19;80.14;100362.69;6227750;23;21704;-80
2021/05/02 01:06:23;;;;;;;21.42;14.25;;;6.10;99.90;;;7.14;80.14;100374.78;6226936;23;20072;-79
2021/05/02 01:09:01;;;;;;;22.20;13.95;;;6.10;99.90;;;7.11;81.01;100367.16;6222132;23;20008;-79
2021/05/02 01:11:29;;;;;;;20.55;13.95;;;6.00;99.90;;;7.12;80.26;100362.41;6221142;23;20011;-80
2021/05/02 01:14:11;;;;;;;21.98;13.52;;;6.10;99.90;;;7.05;80.55;100370.47;6222576;23;20096;-80
2021/05/02 01:16:40;;;;;;;23.63;14.63;;;5.90;99.90;;;6.92;81.37;100360.47;6222224;23;20059;-80
2021/05/02 01:19:12;;;;;;;21.55;14.60;;;5.90;99.90;;;6.83;81.26;100375.25;6223848;23;20008;-80
2021/05/02 01:21:41;;;;;;;18.90;13.57;;;5.80;99.90;;;6.67;81.50;100365.94;6233163;23;20005;-80
2021/05/02 01:24:14;;;;;;;20.80;14.48;;;5.70;99.90;;;6.50;81.53;100368.81;6237499;23;20004;-80
2021/05/02 01:26:47;;;;;;;21.77;14.90;;;5.50;99.90;;;6.42;82.03;100375.25;6236532;23;20024;-79
2021/05/02 01:29:15;;;;;;;22.90;14.88;;;5.40;99.90;;;6.33;82.89;100374.47;6236005;23;20001;-80
2021/05/02 01:31:45;;;;;;;20.17;13.30;;;5.30;99.90;;;6.24;83.39;100374.53;6234662;23;20005;-80
2021/05/02 01:34:12;;;;;;;20.70;13.57;;;5.30;99.90;;;6.13;83.76;100373.28;6233758;23;20001;-79
2021/05/02 01:36:38;;;;;;;19.38;13.82;;;5.20;99.90;;;6.08;83.73;100375.44;6226434;23;20038;-79
2021/05/02 01:39:11;;;;;;;21.85;14.63;;;5.10;99.90;;;6.02;84.25;100382.34;6226175;23;20334;-79
2021/05/02 01:41:38;;;;;;;24.20;15.88;;;5.00;99.90;;;5.98;85.38;100384.97;6225502;23;20083;-79
2021/05/02 01:44:06;;;;;;;23.63;16.42;;;5.00;99.90;;;6.00;85.13;100385.47;6223613;23;20012;-79
2021/05/02 01:46:40;;;;;;;23.67;14.52;;;5.00;99.90;;;5.96;85.12;100384.50;6225158;23;20095;-80
2021/05/02 01:49:13;;;;;;;23.60;15.88;;;5.00;99.90;;;5.92;84.96;100388.25;6198828;23;20074;-80
2021/05/02 01:51:40;;;;;;;25.92;15.02;;;4.90;99.90;;;5.91;85.58;100381.88;6199898;23;20005;-80
2021/05/02 01:54:13;;;;;;;23.90;15.75;;;4.90;99.90;;;5.93;86.13;100385.16;6200666;23;20031;-79
2021/05/02 01:56:42;;;;;;;23.77;15.68;;;4.90;99.90;;;5.97;86.38;100380.59;6228645;23;20000;-80
2021/05/02 01:59:21;;;;;;;26.88;15.52;;;4.90;99.90;;;6.13;87.10;100389.16;6232854;23;20008;-80
2021/05/02 02:01:47;;;;;;;21.50;14.85;;;5.00;99.90;;;6.22;86.59;100390.72;6204108;23;20422;-80
2021/05/02 02:04:15;;;;;;;21.40;14.25;;;5.10;99.90;;;6.32;87.01;100387.53;6204144;23;20012;-80
2021/05/02 02:06:45;;;;;;;21.95;14.82;;;5.30;99.90;;;6.43;85.98;100392.69;6171109;23;20019;-80
2021/05/02 02:09:51;;;;;;;21.00;14.15;;;5.30;99.90;;;6.47;85.96;100391.69;6205888;23;20008;-79
2021/05/02 02:12:26;;;;;;;22.35;14.10;;;5.40;99.90;;;6.47;85.38;100396.41;6228905;23;20015;-78
2021/05/02 02:15:02;;;;;;;;;;;5.40;99.90;;;6.45;86.11;100391.22;6202651;23;19996;-80
2021/05/02 02:17:28;;;;;;;21.98;13.02;;;5.30;99.90;;;6.36;86.07;100399.59;6199472;23;19904;-80
2021/05/02 02:19:56;;;;;;;23.58;14.00;;;5.40;99.90;;;6.38;86.07;100388.16;6202014;23;20012;-80
2021/05/02 02:22:23;;;;;;;19.73;14.25;;;5.40;99.90;;;6.41;86.37;100397.78;6199420;23;20402;-80
2021/05/02 02:25:02;;;;;;;19.85;13.82;;;5.40;99.90;;;6.43;85.65;100404.59;6196909;23;20015;-80
2021/05/02 02:27:33;;;;;;;20.85;14.15;;;5.30;99.90;;;6.36;86.30;100404.31;6196500;23;20008;-80
2021/05/02 02:30:06;;;;;;;21.20;13.55;;;5.30;99.90;;;6.32;86.10;100401.41;6200817;23;20004;-79
2021/05/02 02:32:43;;;;;;;22.38;13.15;;;5.30;99.90;;;6.42;86.19;100408.53;6215027;23;20007;-79
2021/05/02 02:35:16;;;;;;;19.67;12.20;;;5.30;99.90;;;6.39;86.28;100409.19;6207224;23;20067;-80
2021/05/02 02:37:54;;;;;;;19.70;12.75;;;5.30;99.90;;;6.38;86.40;100409.53;6201233;23;20032;-79
2021/05/02 02:40:26;;;;;;;21.25;13.05;;;5.40;99.90;;;6.39;85.99;100411.97;6226378;23;20056;-80
2021/05/02 02:42:53;;;;;;;19.20;11.55;;;5.40;99.90;;;6.43;86.20;100414.88;6200699;23;20019;-80
2021/05/02 02:45:25;;;;;;;16.83;11.38;;;5.40;99.90;;;6.47;85.96;100416.66;6220534;23;20384;-80
2021/05/02 02:47:57;;;;;;;17.33;10.23;;;5.40;99.90;;;6.54;85.28;100416.13;6197186;23;20289;-80
2021/05/02 02:50:28;;;;;;;16.55;10.35;;;5.50;99.90;;;6.62;84.91;100418.03;6223413;23;20005;-82
2021/05/02 02:53:01;;;;;;;15.68;10.77;;;5.50;99.90;;;6.64;84.83;100419.31;6221327;23;20004;-80
2021/05/02 02:55:32;;;;;;;14.75;9.40;;;5.60;99.90;;;6.64;84.67;100424.06;6221885;23;20008;-80
2021/05/02 02:58:12;;;;;;;14.15;9.70;;;5.60;99.90;;;6.61;84.79;100421.97;6201098;23;20032;-79
2021/05/02 03:00:40;;;;;;;14.68;9.77;;;5.60;99.90;;;6.61;84.55;100417.22;6204174;23;20411;-79
2021/05/02 03:03:23;;;;;;;15.65;9.68;;;5.60;99.90;;;6.65;83.89;100434.81;6200520;23;20005;-79
2021/05/02 03:06:03;;;;;;;16.50;9.15;;;5.60;99.90;;;6.58;84.47;100433.75;6200326;23;20514;-80
2021/05/02 03:08:34;;;;;;;14.10;8.90;;;5.60;99.90;;;6.58;84.46;100428.19;6199381;23;20152;-80
2021/05/02 03:11:03;;;;;;;14.27;9.88;;;5.60;99.90;;;6.58;84.59;100428.97;6200478;23;20020;-80
2021/05/02 03:13:30;;;;;;;14.05;8.90;;;5.50;99.90;;;6.61;84.71;100430.28;6200160;23;20024;-80
2021/05/02 03:16:02;;;;;;;16.02;10.07;;;5.50;99.90;;;6.55;85.29;100432.44;6228934;23;20001;-80
2021/05/02 03:18:44;;;;;;;19.15;9.18;;;5.50;99.90;;;6.61;84.80;100442.22;6201630;23;20027;-79
2021/05/02 03:21:21;;;;;;;16.15;9.45;;;5.50;99.90;;;6.62;84.79;100435.50;6200597;23;20013;-80
2021/05/02 03:23:56;;;;;;;14.38;9.32;;;5.50;99.90;;;6.66;84.54;100439.22;6198342;23;20009;-80
2021/05/02 03:26:37;;;;;;;15.07;9.97;;;5.60;99.90;;;6.72;84.95;100446.19;6199849;23;20077;-79
2021/05/02 03:29:15;;;;;;;16.25;10.32;;;5.60;99.90;;;6.66;84.91;100446.72;6202523;23;20255;-80
2021/05/02 03:31:48;;;;;;;21.90;10.32;;;5.60;99.90;;;6.72;84.66;100454.53;6189793;23;20004;-80
2021/05/02 03:34:21;;;;;;;16.17;10.27;;;5.60;99.90;;;6.75;84.02;100451.06;6188943;23;20134;-79
2021/05/02 03:37:00;;;;;;;15.13;9.88;;;5.70;99.90;;;6.76;83.62;100452.69;6217063;23;20395;-80
2021/05/02 03:39:26;;;;;;;14.40;10.05;;;5.70;99.90;;;6.76;83.95;100452.69;6217657;23;20084;-80
2021/05/02 03:41:53;;;;;;;15.93;10.50;;;5.70;99.90;;;6.78;83.75;100458.72;6190712;23;20004;-78
2021/05/02 03:44:22;;;;;;;14.80;10.27;;;5.70;99.90;;;6.74;83.44;100445.88;6217962;23;20096;-77
2021/05/02 03:46:48;;;;;;;15.27;8.82;;;5.70;99.90;;;6.77;83.65;100456.28;6216286;23;20057;-79
2021/05/02 03:49:14;;;;;;;13.57;9.20;;;5.60;99.90;;;6.81;82.82;100460.00;6216358;23;20031;-78
2021/05/02 03:51:40;;;;;;;13.15;9.30;;;5.70;99.90;;;6.81;83.07;100460.00;6216775;23;20056;-78
2021/05/02 03:54:09;;;;;;;13.75;9.45;;;5.70;99.90;;;6.79;82.77;100456.75;6216127;23;20036;-79
2021/05/02 03:56:45;;;;;;;13.27;8.73;;;5.70;99.90;;;6.77;83.41;100470.19;6217594;23;20082;-79
2021/05/02 03:59:22;;;;;;;;;;;5.70;99.90;;;6.71;83.86;100471.53;6219986;23;20009;-81
2021/05/02 04:02:03;;;;;;;15.80;9.00;;;5.70;99.90;;;6.79;83.06;100476.19;6217623;23;19943;-81
2021/05/02 04:04:35;;;;;;;17.50;8.77;;;5.70;99.90;;;6.66;83.61;100474.47;6217880;23;20084;-82
2021/05/02 04:07:17;;;;;;;12.20;7.85;;;5.70;99.90;;;6.68;83.32;100475.75;6217016;23;20008;-81
2021/05/02 04:09:46;;;;;;;14.82;8.88;;;5.80;99.90;;;6.79;83.15;100470.63;6215983;23;20032;-81
2021/05/02 04:12:13;;;;;;;11.20;8.30;;;5.70;99.90;;;6.88;82.39;100480.53;6218365;23;20009;-80
2021/05/02 04:14:40;;;;;;;11.90;7.45;;;5.80;99.90;;;6.92;82.23;100480.69;6217408;23;20476;-80
2021/05/02 04:17:16;;;;;;;12.32;8.88;;;5.80;99.90;;;6.97;82.25;100488.00;6215952;23;20005;-80
2021/05/02 04:19:51;;;;;;;13.02;7.72;;;5.80;99.90;;;6.98;81.76;100486.84;6215776;23;20001;-79
2021/05/02 04:22:29;;;;;;;13.18;8.18;;;5.80;99.90;;;6.95;82.05;100491.09;6217835;23;20008;-79
2021/05/02 04:24:57;;;;;;;12.80;7.88;;;5.80;99.90;;;7.05;81.89;100490.69;6217485;23;20015;-80
2021/05/02 04:27:24;;;;;;;13.30;8.85;;;5.90;99.90;;;6.97;82.03;100491.56;6216237;23;20016;-80
2021/05/02 04:29:50;;;;;;;11.77;8.25;;;5.90;99.90;;;7.07;81.32;100496.72;6216571;23;20004;-80
2021/05/02 04:32:16;;;;;;;19.00;10.63;;;5.90;99.90;;;6.97;82.22;100499.91;6216388;23;20059;-82
2021/05/02 04:34:42;;;;;;;15.85;8.95;;;6.00;99.90;;;7.06;81.80;100503.44;6218542;23;20060;-79
2021/05/02 04:37:12;;;;;;;17.75;10.70;;;6.00;99.90;;;7.14;81.05;100508.09;6219067;23;20008;-80
2021/05/02 04:39:38;;;;;;;14.80;9.07;;;6.00;99.90;;;7.21;81.18;100521.47;6241974;23;20009;-80
2021/05/02 04:42:05;;;;;;;17.23;9.55;;;6.00;99.90;;;7.12;81.53;100518.75;6218171;23;20020;-83
2021/05/02 04:44:31;;;;;;;15.18;9.50;;;6.10;99.90;;;7.21;81.04;100510.34;6216675;23;20016;-81
2021/05/02 04:46:57;;;;;;;16.80;10.00;;;6.00;99.90;;;7.24;81.10;100509.66;6218899;23;20009;-81
2021/05/02 04:49:23;;;;;;;17.08;9.82;;;6.10;99.90;;;7.24;81.18;100520.78;6191467;23;20028;-83
2021/05/02 04:51:52;;;;;;;14.32;10.07;;;6.10;99.90;;;7.20;80.96;100514.28;6202233;23;20005;-79
2021/05/02 04:54:20;;;;;;;14.90;9.73;;;6.10;99.90;;;7.26;80.84;100515.69;6209966;23;20339;-79
2021/05/02 04:56:47;;;;;;;14.68;9.85;;;6.10;99.90;;;7.26;81.00;100522.06;6218599;23;20347;-80
2021/05/02 04:59:13;;;;;;;17.65;9.50;;;6.10;99.90;;;7.28;80.78;100528.09;6191336;23;20012;-80
2021/05/02 05:01:42;;;;;;;17.42;9.68;;;6.20;99.90;;;7.29;81.00;100528.91;6191112;23;20019;-76
2021/05/02 05:04:08;;;;;;;14.48;9.77;;;6.20;99.90;;;7.31;80.24;100530.22;6217394;23;20013;-78
2021/05/02 05:06:36;;;;;;;21.85;10.88;;;6.20;99.90;;;7.39;80.38;100534.03;6217781;23;20016;-79
2021/05/02 05:09:06;;;;;;;15.20;9.85;;;6.20;99.90;;;7.41;80.13;100528.97;6189925;23;20342;-78
2021/05/02 05:11:32;;;;;;;15.43;8.93;;;6.30;99.90;;;7.40;79.58;100533.72;6191771;23;20146;-79
2021/05/02 05:14:01;;;;;;;16.13;10.23;;;6.30;99.90;;;7.41;79.90;100537.31;6190636;23;20096;-79
2021/05/02 05:16:31;;;;;;;19.30;10.43;;;6.30;99.90;;;7.43;79.57;100535.00;6190126;23;20008;-78
2021/05/02 05:18:57;;;;;;;12.48;9.48;;;6.30;99.90;;;7.46;79.38;100547.41;6217594;23;20076;-82
2021/05/02 05:21:26;;;;;;;15.40;10.20;;;6.30;99.90;;;7.38;79.69;100538.78;6217395;23;20027;-79
2021/05/02 05:23:51;;;;;;;17.58;11.35;;;6.30;99.90;;;7.31;80.82;100546.06;6217457;23;20009;-80
2021/05/02 05:26:17;;;;;;;18.63;11.10;;;6.30;99.90;;;7.38;80.34;100554.66;6190401;23;20008;-81
2021/05/02 05:28:43;;;;;;;16.85;11.25;;;6.30;99.90;;;7.26;80.20;100554.56;6217271;23;20013;-80
2021/05/02 05:31:12;;;;;;;17.58;10.07;;;6.20;99.90;;;7.27;80.76;100562.59;6219382;23;20004;-78
2021/05/02 05:33:41;;;;;;;17.83;10.73;;;6.20;99.90;;;7.34;80.56;100568.41;6216500;23;20327;-80
2021/05/02 05:36:07;;;;;;;14.95;9.80;;;6.30;99.90;;;7.35;81.01;100564.47;6217319;23;20016;-79
2021/05/02 05:38:33;;;;;;;17.83;9.35;;;6.20;99.90;;;7.33;80.64;100571.53;6191493;23;20012;-80
2021/05/02 05:40:58;;;;;;;14.73;9.32;;;6.30;99.90;;;7.38;80.49;100582.47;6215965;23;20008;-79
2021/05/02 05:43:24;;;;;;;13.00;8.15;;;6.30;99.90;;;7.41;79.77;100576.22;6216993;23;20028;-81
2021/05/02 05:45:50;;;;;;;13.38;8.55;;;6.30;99.90;;;7.32;79.11;100579.03;6203017;23;20015;-78
2021/05/02 05:48:19;;;;;;;14.20;8.23;;;6.30;99.90;;;7.37;79.11;100578.03;6230211;23;20036;-79
2021/05/02 05:50:48;;;;;;;12.02;7.80;;;6.30;99.90;;;7.47;79.27;100576.81;6240745;23;20044;-81
2021/05/02 05:53:17;;;;;;;12.43;7.30;;;6.30;99.90;;;7.41;78.79;100579.81;6239750;23;19997;-79
2021/05/02 05:55:47;;;;;;;11.18;7.45;;;6.30;99.90;;;7.51;79.12;100575.81;6216584;23;20005;-81
2021/05/02 05:58:13;;;;;;;12.27;6.63;;;6.40;99.90;;;7.41;78.37;100585.38;6213881;23;20016;-78
2021/05/02 06:00:38;;;;;;;14.23;5.60;;;6.30;99.90;;;7.51;77.79;100580.56;6215313;23;20096;-79
2021/05/02 06:03:07;;;;;;;10.63;5.53;;;6.40;99.90;;;7.50;77.42;100576.16;6215614;23;20088;-79
2021/05/02 06:05:33;;;;;;;9.98;5.65;;;6.40;99.90;;;7.51;77.47;100581.38;6213882;23;20036;-79
2021/05/02 06:07:59;;;;;;;9.02;5.03;;;6.40;99.90;;;7.56;77.52;100585.91;6214115;23;20055;-81
2021/05/02 06:10:28;;;;;;;10.40;5.20;;;6.40;99.90;;;7.66;77.37;100588.28;6216139;23;20015;-80
2021/05/02 06:12:57;;;;;;;8.50;5.88;;;6.40;99.90;;;7.71;76.72;100585.28;6214564;23;20102;-79
2021/05/02 06:15:26;;;;;;;11.15;5.95;;;6.50;99.90;;;7.63;76.84;100584.22;6217268;23;20004;-80
2021/05/02 06:17:51;;;;;;;8.85;5.70;;;6.60;99.90;;;7.73;77.09;100586.59;6213871;23;20062;-82
2021/05/02 06:20:17;;;;;;;9.77;5.57;;;6.60;99.90;;;7.87;76.35;100589.88;6215544;23;20013;-80
2021/05/02 06:22:49;;;;;;;9.10;5.10;;;6.70;99.90;;;7.89;75.65;100579.22;6216353;23;20001;-78
2021/05/02 06:25:14;;;;;;;8.95;4.50;;;6.70;99.90;;;7.82;75.27;100605.97;6214248;23;20012;-83
2021/05/02 06:27:40;;;;;;;11.20;5.25;;;6.80;99.90;;;7.73;75.97;100589.34;6213969;23;20095;-81
2021/05/02 06:30:11;;;;;;;8.25;4.65;;;6.70;99.90;;;7.66;76.16;100597.44;6214596;23;20094;-84
2021/05/02 06:32:39;;;;;;;15.15;4.85;;;6.70;99.90;;;7.71;75.94;100596.38;6216004;23;20055;-81
2021/05/02 06:35:07;;;;;;;8.90;5.13;;;6.70;99.90;;;7.70;75.71;100601.16;6214958;23;20122;-83
2021/05/02 06:37:35;;;;;;;7.82;4.88;;;6.60;99.90;;;7.75;75.53;100605.69;6214687;23;20004;-82
2021/05/02 06:40:02;;;;;;;10.23;5.07;;;6.70;99.90;;;7.78;75.36;100594.69;6213309;23;20063;-82
2021/05/02 06:42:28;;;;;;;7.22;4.65;;;6.70;99.90;;;7.86;75.06;100607.72;6214674;23;20016;-79
2021/05/02 06:44:54;;;;;;;9.63;4.38;;;6.80;99.90;;;7.93;74.56;100615.50;6215717;23;20013;-80
2021/05/02 06:47:21;;;;;;;13.48;4.88;;;6.80;99.90;;;8.14;73.96;100610.72;6188233;23;20100;-81
2021/05/02 06:49:46;;;;;;;7.95;4.47;;;6.90;99.90;;;8.30;73.37;100605.34;6187778;23;20011;-82
2021/05/02 06:52:13;;;;;;;8.98;3.75;;;7.10;99.90;;;8.46;72.11;100604.34;6216082;23;20287;-80
2021/05/02 06:54:39;;;;;;;10.55;4.07;;;7.30;99.90;;;8.52;71.86;100613.28;6189568;23;20005;-80
2021/05/02 06:57:05;;;;;;;9.20;3.20;;;7.40;99.90;;;8.69;70.70;100615.88;6215477;23;20004;-80
2021/05/02 06:59:31;;;;;;;5.63;2.83;;;7.50;99.90;;;8.76;69.72;100610.53;6215787;23;20082;-80
2021/05/02 07:01:57;;;;;;;12.43;3.13;;;7.70;99.90;;;8.76;69.12;100626.44;6189445;23;20065;-79
2021/05/02 07:04:23;;;;;;;5.50;2.83;;;7.70;99.90;;;8.98;68.50;100625.97;6215076;23;20008;-80
2021/05/02 07:06:49;;;;;;;6.63;2.60;;;7.80;99.90;;;9.15;68.32;100622.16;6188730;23;20008;-80
2021/05/02 07:09:15;;;;;;;5.97;2.35;;;7.90;99.90;;;9.30;66.97;100622.25;6188047;23;20091;-80
2021/05/02 07:11:41;;;;;;;8.70;2.53;;;8.10;99.90;;;9.48;66.01;100628.38;6187998;23;20008;-78
2021/05/02 07:14:07;;;;;;;6.30;2.33;;;8.30;99.90;;;9.90;64.03;100631.63;6188076;23;20024;-81
2021/05/02 07:16:33;;;;;;;6.43;2.30;;;8.60;99.90;;;9.93;63.75;100637.31;6190924;23;20370;-79
2021/05/02 07:19:04;;;;;;;5.43;2.15;;;8.70;99.90;;;10.08;62.59;100622.59;6218298;23;20083;-82
2021/05/02 07:21:29;;;;;;;7.57;2.42;;;8.90;99.90;;;10.47;61.90;100639.66;6228507;23;20004;-81
2021/05/02 07:23:55;;;;;;;8.75;2.35;;;9.20;99.90;;;10.88;60.93;100633.59;6213150;23;19997;-81
2021/05/02 07:26:23;;;;;;;4.43;1.90;;;9.50;99.90;;;11.24;58.58;100637.25;6191893;23;20024;-83
2021/05/02 07:28:52;;;;;;;7.45;1.98;;;9.80;99.90;;;11.44;58.18;100634.13;6217690;23;20004;-81
2021/05/02 07:31:19;;;;;;;7.43;2.80;;;10.10;99.90;;;11.27;56.13;100634.53;6215747;23;20011;-81
2021/05/02 07:33:48;;;;;;;5.20;1.98;;;10.10;99.90;;;11.56;56.20;100627.59;6215757;23;20015;-82
2021/05/02 07:36:18;;;;;;;4.63;1.70;;;10.20;99.90;;;11.36;56.47;100639.94;6188846;23;20151;-80
2021/05/02 07:38:44;;;;;;;8.82;1.95;;;10.20;99.90;;;10.92;56.82;100636.44;6188555;23;20009;-81
2021/05/02 07:41:11;;;;;;;5.63;2.17;;;9.90;99.90;;;10.64;56.99;100641.31;6215824;23;20005;-81
2021/05/02 07:43:40;;;;;;;4.50;1.73;;;9.60;99.90;;;10.96;55.28;100643.75;6188609;23;20203;-81
2021/05/02 07:46:07;;;;;;;5.30;1.95;;;9.70;99.90;;;10.95;55.17;100639.31;6214882;23;20012;-80
2021/05/02 07:48:34;;;;;;;5.13;2.17;;;9.80;99.90;;;10.62;55.81;100638.06;6215378;23;20032;-82
2021/05/02 07:51:01;;;;;;;4.75;1.80;;;9.60;99.90;;;10.32;57.72;100646.03;6188169;23;20004;-81
2021/05/02 07:53:27;;;;;;;7.18;2.10;;;9.30;99.90;;;10.19;57.19;100647.25;6215484;23;20326;-81
2021/05/02 07:55:53;;;;;;;4.57;1.90;;;9.20;99.90;;;10.12;56.71;100644.22;6214814;23;20008;-81
2021/05/02 07:58:19;;;;;;;9.35;1.88;;;9.10;99.90;;;10.23;57.25;100653.75;6189080;23;20059;-79
2021/05/02 08:00:45;;;;;;;4.55;2.15;;;9.10;99.90;;;10.53;56.26;100655.00;6189074;23;20103;-82
2021/05/02 08:03:10;;;;;;;6.25;1.80;;;9.30;99.90;;;10.67;55.46;100655.38;6189398;23;20008;-81
2021/05/02 08:05:36;;;;;;;8.25;1.85;;;9.40;99.90;;;10.76;55.78;100656.00;6215325;23;20043;-81
2021/05/02 08:08:02;;;;;;;5.60;2.05;;;9.50;99.90;;;10.74;54.77;100654.75;6189208;23;20020;-81
2021/05/02 08:10:28;;;;;;;3.40;2.13;;;9.60;99.90;;;10.64;54.74;100655.25;6215900;23;20028;-79
2021/05/02 08:12:56;;;;;;;4.43;1.70;;;9.60;99.90;;;10.72;54.99;100663.50;6188897;23;20080;-79
2021/05/02 08:15:23;;;;;;;5.47;1.90;;;9.60;99.90;;;10.62;55.21;100661.22;6214518;23;20011;-78
2021/05/02 08:17:49;;;;;;;5.45;2.03;;;9.50;99.90;;;11.42;51.64;100666.44;6216205;23;20402;-79
2021/05/02 08:20:17;;;;;;;3.65;2.05;;;10.00;99.90;;;12.21;50.28;100667.03;6189074;23;20013;-80
2021/05/02 08:22:43;;;;;;;8.05;1.80;;;10.70;99.90;;;12.89;48.70;100661.53;6188111;23;20473;-81
2021/05/02 08:25:10;;;;;;;4.88;1.60;;;11.40;97.50;;;14.11;45.39;100667.47;6190142;23;20020;-82
2021/05/02 08:27:36;;;;;;;7.07;1.92;;;12.40;91.40;;;13.35;46.73;100657.56;6218169;23;20047;-82
2021/05/02 08:30:06;;;;;;;4.70;1.45;;;12.10;89.40;;;12.68;47.38;100661.97;6192191;23;20005;-79
2021/05/02 08:32:32;;;;;;;4.15;1.50;;;11.60;87.60;;;11.99;48.47;100657.38;6219385;23;20075;-81
2021/05/02 08:34:58;;;;;;;8.35;1.60;;;11.10;90.60;;;11.49;49.94;100666.63;6190809;23;20008;-80
2021/05/02 08:37:24;;;;;;;7.47;1.90;;;10.50;92.60;;;11.07;51.01;100669.19;6217601;23;20004;-78
2021/05/02 08:39:50;;;;;;;5.93;2.05;;;10.10;95.70;;;11.06;51.31;100668.38;6217762;23;20005;-79
2021/05/02 08:42:16;;;;;;;3.90;1.90;;;10.00;98.00;;;12.33;49.15;100676.06;6191089;23;20036;-81
2021/05/02 08:44:43;;;;;;;11.20;1.80;;;10.80;96.60;;;13.10;46.86;100676.75;6190631;23;20009;-82
2021/05/02 08:47:14;;;;;;;3.38;1.42;;;11.50;91.60;;;13.48;44.09;100675.00;6190553;23;20344;-79
2021/05/02 08:49:44;;;;;;;6.78;1.73;;;12.00;82.50;;;13.85;43.86;100673.13;6190347;23;20043;-82
2021/05/02 08:52:11;;;;;;;6.18;1.45;;;12.50;79.90;;;13.66;43.68;100665.66;6216910;23;20419;-79
2021/05/02 08:54:38;;;;;;;4.72;1.70;;;12.20;78.10;;;13.44;45.48;100666.53;6218236;23;20058;-81
2021/05/02 08:57:05;;;;;;;4.90;1.92;;;12.00;82.90;;;12.62;46.43;100686.66;6217794;23;20015;-78
2021/05/02 08:59:31;;;;;;;5.07;1.80;;;11.50;82.50;;;12.18;47.18;100676.16;6218101;23;20039;-82
2021/05/02 09:01:58;;;;;;;3.90;1.55;;;11.10;85.30;;;11.82;47.40;100681.00;6190900;23;20008;-82
2021/05/02 09:04:26;;;;;;;2.08;1.40;;;10.80;86.10;;;12.85;45.60;100681.09;6191891;23;20004;-82
2021/05/02 09:06:52;;;;;;;3.97;1.50;;;11.40;83.50;;;14.19;42.57;100685.25;6191022;23;20473;-80
2021/05/02 09:09:18;;;;;;;4.80;1.48;;;12.50;77.90;;;15.11;40.86;100681.47;6191467;23;20004;-82
2021/05/02 09:11:49;;;;;;;3.67;1.52;;;13.30;73.00;;;14.38;41.33;100682.31;6217134;23;20005;-81
2021/05/02 09:14:19;;;;;;;4.25;1.58;;;13.20;70.00;;;13.62;41.90;100673.19;6191249;23;20035;-79
2021/05/02 09:17:10;;;;;;;5.43;1.98;;;12.60;70.00;;;13.07;43.49;100668.25;6190627;23;20055;-81
2021/05/02 09:19:56;;;;;;;4.78;2.53;;;12.10;73.70;;;12.73;43.70;100670.06;6217403;23;20074;-78
2021/05/02 09:22:23;;;;;;;4.32;1.60;;;11.70;73.60;;;13.05;44.76;100679.03;6189824;23;20255;-82
2021/05/02 09:25:11;;;;;;;4.63;1.38;;;11.70;77.20;;;13.38;43.78;100668.03;6190471;23;20068;-82
2021/05/02 09:27:50;;;;;;;4.30;1.52;;;12.00;76.00;;;13.03;44.32;100678.63;6190365;23;20026;-81
2021/05/02 09:30:20;;;;;;;4.18;1.92;;;11.80;75.90;;;12.10;47.20;100678.81;6217848;23;20050;-81
2021/05/02 09:32:48;;;;;;;6.60;2.00;;;11.30;80.30;;;11.69;49.34;100684.25;6216494;23;20389;-81
2021/05/02 09:35:31;;;;;;;4.25;1.85;;;10.70;86.90;;;11.44;50.29;100686.47;6217165;23;20005;-80
2021/05/02 09:38:18;;;;;;;3.72;1.45;;;10.40;91.20;;;11.27;50.76;100687.66;6217310;23;20095;-80
2021/05/02 09:40:56;;;;;;;6.57;2.10;;;10.10;94.20;;;11.71;51.37;100691.16;6216574;23;20063;-83
2021/05/02 09:43:50;;;;;;;5.10;2.20;;;10.40;96.60;;;12.97;47.31;100697.72;6193728;23;20008;-82
2021/05/02 09:46:30;;;;;;;7.53;2.83;;;11.50;90.80;;;12.74;47.64;100694.13;6230197;23;20011;-81
2021/05/02 09:49:16;;;;;;;8.00;4.10;;;11.50;89.10;;;12.04;49.32;100690.69;6215088;23;20017;-81
2021/05/02 09:51:52;;;;;;;4.15;2.65;;;11.10;91.10;;;11.76;50.51;100699.25;6216715;23;20027;-81
2021/05/02 09:54:21;;;;;;;4.97;2.33;;;10.90;93.50;;;11.46;52.59;100704.50;6216305;23;20011;-79
2021/05/02 09:56:59;;;;;;;5.35;2.83;;;10.60;96.50;;;11.41;52.59;100709.56;6214299;23;20005;-84
2021/05/02 09:59:34;;;;;;;5.28;2.80;;;10.40;98.60;;;11.42;53.29;100700.00;6215490;23;20063;-80
2021/05/02 10:02:12;;;;;;;5.85;2.70;;;10.40;99.90;;;12.10;52.68;100697.63;6214600;23;20008;-82
2021/05/02 10:04:44;;;;;;;5.40;1.75;;;10.80;99.90;;;13.52;46.17;100692.66;6214671;23;20533;-80
2021/05/02 10:07:15;;;;;;;4.47;2.90;;;11.90;91.30;;;13.96;43.68;100698.56;6214554;23;20008;-82
2021/05/02 10:09:42;;;;;;;7.05;1.85;;;12.40;79.70;;;13.39;43.87;100685.69;6216523;23;20008;-80
2021/05/02 10:12:15;;;;;;;4.20;2.47;;;12.20;76.20;;;13.55;44.14;100698.34;6216520;23;20070;-80
2021/05/02 10:14:44;;;;;;;4.45;2.47;;;12.20;77.40;;;13.63;44.43;100696.47;6216569;23;20284;-82
2021/05/02 10:17:11;;;;;;;5.47;1.77;;;12.50;77.00;;;14.72;39.76;100688.69;6216278;23;20009;-83
2021/05/02 10:19:40;;;;;;;3.50;1.55;;;13.10;70.10;;;14.84;39.28;100691.22;6217056;23;20004;-83
2021/05/02 10:22:07;;;;;;;4.45;1.98;;;13.10;68.00;;;13.83;41.36;100700.78;6215554;23;20343;-81
2021/05/02 10:24:37;;;;;;;3.38;1.65;;;12.70;69.40;;;13.50;43.11;100693.06;6217151;23;20004;-81
2021/05/02 10:27:11;;;;;;;5.28;2.53;;;12.30;72.40;;;13.07;43.60;100690.69;6216509;23;20493;-80
2021/05/02 10:29:41;;;;;;;5.40;4.05;;;11.90;73.60;;;12.51;44.28;100704.47;6216789;23;20005;-82
2021/05/02 10:32:13;;;;;;;7.72;5.70;;;11.50;74.20;;;11.96;45.26;100700.91;6215869;23;20320;-79